sensor_id;sensor_type;location;lat;lon;timestamp;pressure;altitude;pressure_sealevel;temperature;humidity
60697;BME280;46536;54.376;19.858;2022-10-31T00:01:38;101985.54;;;9.79;70.05
60697;BME280;46536;54.376;19.858;2022-10-31T00:04:07;101985.61;;;9.86;70.13
60697;BME280;46536;54.376;19.858;2022-10-31T00:06:36;101982.08;;;9.92;70.09
60697;BME280;46536;54.376;19.858;2022-10-31T00:09:04;101979.87;;;10.00;70.12
60697;BME280;46536;54.376;19.858;2022-10-31T00:11:33;101978.40;;;10.06;70.11
60697;BME280;46536;54.376;19.858;2022-10-31T00:14:03;101974.33;;;10.13;70.25
60697;BME280;46536;54.376;19.858;2022-10-31T00:16:32;101971.62;;;10.19;70.41
60697;BME280;46536;54.376;19.858;2022-10-31T00:19:04;101964.77;;;10.27;70.32
60697;BME280;46536;54.376;19.858;2022-10-31T00:21:35;101970.18;;;10.36;70.36
60697;BME280;46536;54.376;19.858;2022-10-31T00:24:04;101972.51;;;10.43;70.29
60697;BME280;46536;54.376;19.858;2022-10-31T00:26:33;101969.27;;;10.50;70.32
60697;BME280;46536;54.376;19.858;2022-10-31T00:29:02;101971.23;;;10.57;70.26
60697;BME280;46536;54.376;19.858;2022-10-31T00:31:32;101970.42;;;10.64;70.08
60697;BME280;46536;54.376;19.858;2022-10-31T00:34:01;101971.89;;;10.70;70.03
60697;BME280;46536;54.376;19.858;2022-10-31T00:36:31;101969.87;;;10.76;69.93
60697;BME280;46536;54.376;19.858;2022-10-31T00:39:00;101967.69;;;10.82;70.02
60697;BME280;46536;54.376;19.858;2022-10-31T00:41:29;101970.03;;;10.86;70.27
60697;BME280;46536;54.376;19.858;2022-10-31T00:43:58;101974.63;;;10.92;70.62
60697;BME280;46536;54.376;19.858;2022-10-31T00:46:27;101974.05;;;10.97;70.37
60697;BME280;46536;54.376;19.858;2022-10-31T00:48:55;101975.35;;;11.01;70.26
60697;BME280;46536;54.376;19.858;2022-10-31T00:51:24;101978.55;;;11.05;70.12
60697;BME280;46536;54.376;19.858;2022-10-31T00:53:53;101975.89;;;11.08;69.86
60697;BME280;46536;54.376;19.858;2022-10-31T00:56:22;101979.31;;;11.13;69.60
60697;BME280;46536;54.376;19.858;2022-10-31T00:58:50;101978.92;;;11.14;69.21
60697;BME280;46536;54.376;19.858;2022-10-31T01:01:20;101981.71;;;11.14;69.00
60697;BME280;46536;54.376;19.858;2022-10-31T01:03:50;101981.56;;;11.13;68.64
60697;BME280;46536;54.376;19.858;2022-10-31T01:06:19;101977.42;;;11.10;68.50
60697;BME280;46536;54.376;19.858;2022-10-31T01:08:48;101979.88;;;11.09;68.28
60697;BME280;46536;54.376;19.858;2022-10-31T01:11:23;101980.63;;;11.06;68.28
60697;BME280;46536;54.376;19.858;2022-10-31T01:13:53;101980.52;;;11.03;68.32
60697;BME280;46536;54.376;19.858;2022-10-31T01:16:23;101983.72;;;10.99;68.70
60697;BME280;46536;54.376;19.858;2022-10-31T01:18:53;101987.84;;;10.92;69.22
60697;BME280;46536;54.376;19.858;2022-10-31T01:21:24;101994.52;;;10.88;69.20
60697;BME280;46536;54.376;19.858;2022-10-31T01:23:55;101996.77;;;10.88;68.75
60697;BME280;46536;54.376;19.858;2022-10-31T01:26:29;101989.32;;;10.86;69.03
60697;BME280;46536;54.376;19.858;2022-10-31T01:29:03;101992.33;;;10.84;69.26
60697;BME280;46536;54.376;19.858;2022-10-31T01:31:36;101999.48;;;10.82;69.19
60697;BME280;46536;54.376;19.858;2022-10-31T01:34:05;101996.73;;;10.80;69.23
60697;BME280;46536;54.376;19.858;2022-10-31T01:36:37;101996.77;;;10.78;69.32
60697;BME280;46536;54.376;19.858;2022-10-31T01:39:11;102000.27;;;10.78;69.12
60697;BME280;46536;54.376;19.858;2022-10-31T01:41:46;102003.58;;;10.76;69.23
60697;BME280;46536;54.376;19.858;2022-10-31T01:54:41;102009.05;;;10.50;70.84
60697;BME280;46536;54.376;19.858;2022-10-31T01:57:12;102008.74;;;10.47;70.92
60697;BME280;46536;54.376;19.858;2022-10-31T01:59:47;102016.02;;;10.48;70.88
60697;BME280;46536;54.376;19.858;2022-10-31T02:02:17;102017.06;;;10.48;70.82
60697;BME280;46536;54.376;19.858;2022-10-31T02:04:47;102015.50;;;10.48;70.75
60697;BME280;46536;54.376;19.858;2022-10-31T02:07:22;102020.23;;;10.46;70.66
60697;BME280;46536;54.376;19.858;2022-10-31T02:09:53;102023.73;;;10.45;70.70
60697;BME280;46536;54.376;19.858;2022-10-31T02:12:25;102022.89;;;10.41;70.87
60697;BME280;46536;54.376;19.858;2022-10-31T02:14:59;102019.84;;;10.36;71.21
60697;BME280;46536;54.376;19.858;2022-10-31T02:17:29;102022.18;;;10.31;71.39
60697;BME280;46536;54.376;19.858;2022-10-31T02:33:48;102024.67;;;10.12;73.07
60697;BME280;46536;54.376;19.858;2022-10-31T02:44:33;102032.18;;;10.22;73.65
60697;BME280;46536;54.376;19.858;2022-10-31T02:47:16;102031.85;;;10.22;73.84
60697;BME280;46536;54.376;19.858;2022-10-31T02:52:28;102032.88;;;10.22;73.93
60697;BME280;46536;54.376;19.858;2022-10-31T02:58:06;102037.59;;;10.19;74.14
60697;BME280;46536;54.376;19.858;2022-10-31T03:01:42;102038.95;;;10.22;74.14
60697;BME280;46536;54.376;19.858;2022-10-31T03:09:27;102034.52;;;10.30;74.06
60697;BME280;46536;54.376;19.858;2022-10-31T03:15:48;102040.93;;;10.31;74.26
60697;BME280;46536;54.376;19.858;2022-10-31T03:18:31;102036.93;;;10.32;74.30
60697;BME280;46536;54.376;19.858;2022-10-31T03:21:14;102038.81;;;10.34;74.29
60697;BME280;46536;54.376;19.858;2022-10-31T03:23:45;102037.06;;;10.35;74.35
60697;BME280;46536;54.376;19.858;2022-10-31T03:26:21;102041.39;;;10.35;74.29
60697;BME280;46536;54.376;19.858;2022-10-31T03:29:00;102043.48;;;10.35;74.21
60697;BME280;46536;54.376;19.858;2022-10-31T03:31:47;102047.11;;;10.36;74.38
60697;BME280;46536;54.376;19.858;2022-10-31T03:34:19;102049.88;;;10.37;74.38
60697;BME280;46536;54.376;19.858;2022-10-31T03:36:51;102046.05;;;10.37;74.17
60697;BME280;46536;54.376;19.858;2022-10-31T03:39:22;102048.34;;;10.35;74.16
60697;BME280;46536;54.376;19.858;2022-10-31T03:41:59;102049.92;;;10.34;74.17
60697;BME280;46536;54.376;19.858;2022-10-31T03:44:32;102050.35;;;10.29;74.40
60697;BME280;46536;54.376;19.858;2022-10-31T03:47:03;102050.75;;;10.25;74.40
60697;BME280;46536;54.376;19.858;2022-10-31T03:49:33;102052.68;;;10.22;74.45
60697;BME280;46536;54.376;19.858;2022-10-31T03:52:24;102052.02;;;10.19;74.48
60697;BME280;46536;54.376;19.858;2022-10-31T03:54:59;102055.22;;;10.13;74.61
60697;BME280;46536;54.376;19.858;2022-10-31T03:58:10;102053.73;;;10.05;74.85
60697;BME280;46536;54.376;19.858;2022-10-31T04:00:43;102055.31;;;10.05;75.02
60697;BME280;46536;54.376;19.858;2022-10-31T04:03:14;102060.00;;;10.04;75.00
60697;BME280;46536;54.376;19.858;2022-10-31T04:05:46;102058.63;;;10.03;75.04
60697;BME280;46536;54.376;19.858;2022-10-31T04:08:20;102062.11;;;10.03;75.09
60697;BME280;46536;54.376;19.858;2022-10-31T04:10:55;102058.91;;;9.96;75.10
60697;BME280;46536;54.376;19.858;2022-10-31T04:13:30;102063.48;;;9.91;75.36
60697;BME280;46536;54.376;19.858;2022-10-31T04:16:05;102059.72;;;9.85;75.36
60697;BME280;46536;54.376;19.858;2022-10-31T04:18:41;102062.39;;;9.81;75.50
60697;BME280;46536;54.376;19.858;2022-10-31T04:21:11;102065.01;;;9.79;75.59
60697;BME280;46536;54.376;19.858;2022-10-31T04:23:39;102064.70;;;9.76;75.66
60697;BME280;46536;54.376;19.858;2022-10-31T04:26:15;102062.13;;;9.75;75.75
60697;BME280;46536;54.376;19.858;2022-10-31T04:28:44;102065.27;;;9.73;75.71
60697;BME280;46536;54.376;19.858;2022-10-31T04:31:14;102067.19;;;9.68;75.75
60697;BME280;46536;54.376;19.858;2022-10-31T04:33:43;102062.59;;;9.63;75.85
60697;BME280;46536;54.376;19.858;2022-10-31T04:36:12;102060.92;;;9.57;75.82
60697;BME280;46536;54.376;19.858;2022-10-31T04:38:42;102060.08;;;9.53;76.08
60697;BME280;46536;54.376;19.858;2022-10-31T04:41:25;102054.38;;;9.52;76.22
60697;BME280;46536;54.376;19.858;2022-10-31T04:43:59;102049.53;;;9.50;76.17
60697;BME280;46536;54.376;19.858;2022-10-31T04:46:28;102047.69;;;9.45;76.34
60697;BME280;46536;54.376;19.858;2022-10-31T04:48:57;102044.78;;;9.42;76.39
60697;BME280;46536;54.376;19.858;2022-10-31T04:51:26;102041.51;;;9.40;76.54
60697;BME280;46536;54.376;19.858;2022-10-31T04:53:55;102038.73;;;9.40;76.61
60697;BME280;46536;54.376;19.858;2022-10-31T04:56:57;102037.55;;;9.39;76.56
60697;BME280;46536;54.376;19.858;2022-10-31T04:59:26;102038.58;;;9.39;76.49
60697;BME280;46536;54.376;19.858;2022-10-31T05:01:54;102034.94;;;9.39;76.60
60697;BME280;46536;54.376;19.858;2022-10-31T05:04:33;102039.98;;;9.39;76.55
60697;BME280;46536;54.376;19.858;2022-10-31T05:07:03;102039.45;;;9.39;76.53
60697;BME280;46536;54.376;19.858;2022-10-31T05:09:32;102041.19;;;9.38;76.60
60697;BME280;46536;54.376;19.858;2022-10-31T05:12:01;102040.66;;;9.39;76.49
60697;BME280;46536;54.376;19.858;2022-10-31T05:15:03;102043.27;;;9.39;76.54
60697;BME280;46536;54.376;19.858;2022-10-31T05:18:04;102042.02;;;9.41;76.56
60697;BME280;46536;54.376;19.858;2022-10-31T05:21:02;102043.09;;;9.38;76.39
60697;BME280;46536;54.376;19.858;2022-10-31T05:23:42;102041.72;;;9.34;76.35
60697;BME280;46536;54.376;19.858;2022-10-31T05:26:16;102042.45;;;9.31;76.21
60697;BME280;46536;54.376;19.858;2022-10-31T05:28:45;102045.77;;;9.29;76.36
60697;BME280;46536;54.376;19.858;2022-10-31T05:31:14;102045.61;;;9.28;76.09
60697;BME280;46536;54.376;19.858;2022-10-31T05:33:43;102041.98;;;9.28;76.08
60697;BME280;46536;54.376;19.858;2022-10-31T05:36:50;102034.85;;;9.28;75.96
60697;BME280;46536;54.376;19.858;2022-10-31T05:39:23;102037.98;;;9.28;75.95
60697;BME280;46536;54.376;19.858;2022-10-31T05:41:55;102041.79;;;9.29;75.84
60697;BME280;46536;54.376;19.858;2022-10-31T05:44:26;102038.49;;;9.29;75.73
60697;BME280;46536;54.376;19.858;2022-10-31T05:47:15;102038.67;;;9.28;75.49
60697;BME280;46536;54.376;19.858;2022-10-31T05:50:10;102037.13;;;9.27;75.42
60697;BME280;46536;54.376;19.858;2022-10-31T05:53:04;102031.77;;;9.26;75.33
60697;BME280;46536;54.376;19.858;2022-10-31T05:55:38;102032.45;;;9.26;75.24
60697;BME280;46536;54.376;19.858;2022-10-31T05:58:18;102036.10;;;9.27;75.17
60697;BME280;46536;54.376;19.858;2022-10-31T06:00:57;102032.10;;;9.27;75.04
60697;BME280;46536;54.376;19.858;2022-10-31T06:03:26;102030.36;;;9.27;74.87
60697;BME280;46536;54.376;19.858;2022-10-31T06:05:56;102028.98;;;9.27;74.77
60697;BME280;46536;54.376;19.858;2022-10-31T06:08:30;102032.32;;;9.23;74.70
60697;BME280;46536;54.376;19.858;2022-10-31T06:11:01;102039.80;;;9.19;74.75
60697;BME280;46536;54.376;19.858;2022-10-31T06:13:53;102046.06;;;9.16;74.93
60697;BME280;46536;54.376;19.858;2022-10-31T06:16:31;102048.16;;;9.15;74.86
60697;BME280;46536;54.376;19.858;2022-10-31T06:19:09;102054.27;;;9.11;75.12
60697;BME280;46536;54.376;19.858;2022-10-31T06:21:38;102054.10;;;9.10;75.09
60697;BME280;46536;54.376;19.858;2022-10-31T06:24:07;102058.04;;;9.15;75.16
60697;BME280;46536;54.376;19.858;2022-10-31T06:26:54;102059.05;;;9.18;75.16
60697;BME280;46536;54.376;19.858;2022-10-31T06:29:23;102066.98;;;9.23;75.21
60697;BME280;46536;54.376;19.858;2022-10-31T06:32:11;102068.55;;;9.23;75.27
60697;BME280;46536;54.376;19.858;2022-10-31T06:34:43;102071.48;;;9.24;75.41
60697;BME280;46536;54.376;19.858;2022-10-31T06:37:12;102074.94;;;9.25;75.52
60697;BME280;46536;54.376;19.858;2022-10-31T06:39:43;102078.91;;;9.27;75.54
60697;BME280;46536;54.376;19.858;2022-10-31T06:42:15;102079.95;;;9.27;75.69
60697;BME280;46536;54.376;19.858;2022-10-31T06:44:44;102080.07;;;9.32;75.82
60697;BME280;46536;54.376;19.858;2022-10-31T06:47:33;102082.11;;;9.37;75.81
60697;BME280;46536;54.376;19.858;2022-10-31T06:50:20;102081.57;;;9.40;76.14
60697;BME280;46536;54.376;19.858;2022-10-31T06:52:59;102083.12;;;9.41;76.01
60697;BME280;46536;54.376;19.858;2022-10-31T06:55:29;102083.28;;;9.42;76.20
60697;BME280;46536;54.376;19.858;2022-10-31T06:57:59;102087.58;;;9.45;76.32
60697;BME280;46536;54.376;19.858;2022-10-31T07:00:31;102086.98;;;9.51;76.36
60697;BME280;46536;54.376;19.858;2022-10-31T07:03:10;102086.09;;;9.54;76.48
60697;BME280;46536;54.376;19.858;2022-10-31T07:05:41;102089.55;;;9.56;76.37
60697;BME280;46536;54.376;19.858;2022-10-31T07:08:12;102096.30;;;9.58;76.49
60697;BME280;46536;54.376;19.858;2022-10-31T07:10:42;102098.21;;;9.57;76.22
60697;BME280;46536;54.376;19.858;2022-10-31T07:13:14;102105.16;;;9.54;76.32
60697;BME280;46536;54.376;19.858;2022-10-31T07:15:49;102107.60;;;9.53;76.41
60697;BME280;46536;54.376;19.858;2022-10-31T07:18:18;102109.33;;;9.55;76.66
60697;BME280;46536;54.376;19.858;2022-10-31T07:20:48;102107.73;;;9.59;76.77
60697;BME280;46536;54.376;19.858;2022-10-31T07:23:18;102104.94;;;9.60;76.66
60697;BME280;46536;54.376;19.858;2022-10-31T07:25:56;102107.51;;;9.64;76.89
60697;BME280;46536;54.376;19.858;2022-10-31T07:28:32;102108.86;;;9.66;76.79
60697;BME280;46536;54.376;19.858;2022-10-31T07:31:01;102113.70;;;9.68;76.78
60697;BME280;46536;54.376;19.858;2022-10-31T07:33:31;102112.28;;;9.72;76.93
60697;BME280;46536;54.376;19.858;2022-10-31T07:36:18;102111.91;;;9.75;76.95
60697;BME280;46536;54.376;19.858;2022-10-31T07:38:49;102114.09;;;9.81;77.09
60697;BME280;46536;54.376;19.858;2022-10-31T07:41:18;102119.20;;;9.91;77.11
60697;BME280;46536;54.376;19.858;2022-10-31T07:43:47;102122.36;;;10.02;77.02
60697;BME280;46536;54.376;19.858;2022-10-31T07:46:16;102124.42;;;10.19;77.26
60697;BME280;46536;54.376;19.858;2022-10-31T07:49:15;102126.94;;;10.41;76.70
60697;BME280;46536;54.376;19.858;2022-10-31T07:52:02;102127.20;;;10.60;76.46
60697;BME280;46536;54.376;19.858;2022-10-31T07:54:49;102126.75;;;10.79;76.20
60697;BME280;46536;54.376;19.858;2022-10-31T07:57:23;102132.08;;;10.95;75.71
60697;BME280;46536;54.376;19.858;2022-10-31T07:59:53;102138.50;;;11.07;75.37
60697;BME280;46536;54.376;19.858;2022-10-31T08:02:24;102143.67;;;11.20;75.28
60697;BME280;46536;54.376;19.858;2022-10-31T08:05:33;102137.52;;;11.35;74.69
60697;BME280;46536;54.376;19.858;2022-10-31T08:08:25;102132.80;;;11.46;74.45
60697;BME280;46536;54.376;19.858;2022-10-31T08:11:02;102130.94;;;11.53;74.07
60697;BME280;46536;54.376;19.858;2022-10-31T08:13:31;102131.64;;;11.62;74.27
60697;BME280;46536;54.376;19.858;2022-10-31T08:16:00;102124.97;;;11.75;74.14
60697;BME280;46536;54.376;19.858;2022-10-31T08:18:35;102126.20;;;11.86;73.63
60697;BME280;46536;54.376;19.858;2022-10-31T08:21:07;102125.84;;;11.94;73.50
60697;BME280;46536;54.376;19.858;2022-10-31T08:23:36;102127.85;;;11.99;72.98
60697;BME280;46536;54.376;19.858;2022-10-31T08:26:05;102131.52;;;12.07;73.37
60697;BME280;46536;54.376;19.858;2022-10-31T08:28:34;102129.15;;;12.20;73.25
60697;BME280;46536;54.376;19.858;2022-10-31T08:31:03;102124.89;;;12.32;72.78
60697;BME280;46536;54.376;19.858;2022-10-31T08:33:40;102127.28;;;12.42;72.58
60697;BME280;46536;54.376;19.858;2022-10-31T08:36:27;102125.19;;;12.51;72.63
60697;BME280;46536;54.376;19.858;2022-10-31T08:39:10;102132.31;;;12.67;72.64
60697;BME280;46536;54.376;19.858;2022-10-31T08:41:39;102138.64;;;12.80;72.25
60697;BME280;46536;54.376;19.858;2022-10-31T08:44:11;102141.09;;;12.94;72.09
60697;BME280;46536;54.376;19.858;2022-10-31T08:46:40;102141.41;;;13.11;71.99
60697;BME280;46536;54.376;19.858;2022-10-31T08:49:09;102132.27;;;13.22;71.30
60697;BME280;46536;54.376;19.858;2022-10-31T08:51:39;102130.75;;;13.34;71.35
60697;BME280;46536;54.376;19.858;2022-10-31T08:54:08;102133.86;;;13.48;70.88
60697;BME280;46536;54.376;19.858;2022-10-31T08:56:36;102132.54;;;13.59;70.80
60697;BME280;46536;54.376;19.858;2022-10-31T08:59:12;102132.35;;;13.72;70.41
60697;BME280;46536;54.376;19.858;2022-10-31T09:01:53;102128.09;;;13.88;70.61
60697;BME280;46536;54.376;19.858;2022-10-31T09:04:22;102131.92;;;14.07;70.27
60697;BME280;46536;54.376;19.858;2022-10-31T09:06:51;102134.79;;;14.23;69.91
60697;BME280;46536;54.376;19.858;2022-10-31T09:09:39;102131.30;;;14.41;69.51
60697;BME280;46536;54.376;19.858;2022-10-31T09:12:08;102131.38;;;14.56;68.86
60697;BME280;46536;54.376;19.858;2022-10-31T09:15:06;102140.25;;;14.69;68.59
60697;BME280;46536;54.376;19.858;2022-10-31T09:17:46;102138.08;;;14.83;68.11
60697;BME280;46536;54.376;19.858;2022-10-31T09:20:37;102137.20;;;14.88;67.58
60697;BME280;46536;54.376;19.858;2022-10-31T09:23:10;102134.20;;;14.95;67.30
60697;BME280;46536;54.376;19.858;2022-10-31T09:25:41;102135.23;;;15.00;66.91
60697;BME280;46536;54.376;19.858;2022-10-31T09:28:29;102137.09;;;15.08;67.29
60697;BME280;46536;54.376;19.858;2022-10-31T09:31:00;102135.00;;;15.23;67.15
60697;BME280;46536;54.376;19.858;2022-10-31T09:33:55;102128.48;;;15.45;67.01
60697;BME280;46536;54.376;19.858;2022-10-31T09:36:39;102130.30;;;15.58;66.09
60697;BME280;46536;54.376;19.858;2022-10-31T09:39:10;102133.29;;;15.64;65.60
60697;BME280;46536;54.376;19.858;2022-10-31T09:53:33;102133.27;;;15.93;64.33
60697;BME280;46536;54.376;19.858;2022-10-31T09:56:23;102135.11;;;15.91;64.04
60697;BME280;46536;54.376;19.858;2022-10-31T09:58:59;102139.77;;;15.93;64.22
60697;BME280;46536;54.376;19.858;2022-10-31T10:04:31;102142.45;;;16.16;64.59
60697;BME280;46536;54.376;19.858;2022-10-31T10:07:37;102138.27;;;16.24;63.89
60697;BME280;46536;54.376;19.858;2022-10-31T10:20:08;102154.75;;;16.48;63.17
60697;BME280;46536;54.376;19.858;2022-10-31T10:22:51;102151.14;;;16.50;62.90
60697;BME280;46536;54.376;19.858;2022-10-31T10:25:28;102148.99;;;16.33;62.10
60697;BME280;46536;54.376;19.858;2022-10-31T10:28:06;102145.96;;;16.11;62.46
60697;BME280;46536;54.376;19.858;2022-10-31T10:33:21;102139.33;;;15.82;63.05
60697;BME280;46536;54.376;19.858;2022-10-31T10:35:58;102136.54;;;15.66;63.16
60697;BME280;46536;54.376;19.858;2022-10-31T10:41:13;102128.33;;;15.29;63.96
60697;BME280;46536;54.376;19.858;2022-10-31T10:43:43;102135.27;;;15.10;64.38
60697;BME280;46536;54.376;19.858;2022-10-31T10:49:52;102131.71;;;14.73;65.67
60697;BME280;46536;54.376;19.858;2022-10-31T10:52:48;102131.23;;;14.61;66.03
60697;BME280;46536;54.376;19.858;2022-10-31T10:57:58;102120.27;;;14.40;67.12
60697;BME280;46536;54.376;19.858;2022-10-31T11:00:52;102133.57;;;14.34;67.40
60697;BME280;46536;54.376;19.858;2022-10-31T11:03:19;102127.80;;;14.29;67.86
60697;BME280;46536;54.376;19.858;2022-10-31T11:05:53;102127.89;;;14.26;67.83
60697;BME280;46536;54.376;19.858;2022-10-31T11:13:33;102128.28;;;14.24;68.08
60697;BME280;46536;54.376;19.858;2022-10-31T11:16:06;102125.80;;;14.18;68.35
60697;BME280;46536;54.376;19.858;2022-10-31T11:18:45;102119.23;;;14.17;68.75
60697;BME280;46536;54.376;19.858;2022-10-31T11:21:24;102117.29;;;14.17;68.91
60697;BME280;46536;54.376;19.858;2022-10-31T11:24:12;102109.59;;;14.17;68.75
60697;BME280;46536;54.376;19.858;2022-10-31T11:26:43;102111.77;;;14.20;69.16
60697;BME280;46536;54.376;19.858;2022-10-31T11:29:21;102112.89;;;14.24;69.21
60697;BME280;46536;54.376;19.858;2022-10-31T11:31:52;102111.58;;;14.28;69.24
60697;BME280;46536;54.376;19.858;2022-10-31T11:34:42;102105.06;;;14.30;69.25
60697;BME280;46536;54.376;19.858;2022-10-31T11:37:26;102110.58;;;14.32;69.46
60697;BME280;46536;54.376;19.858;2022-10-31T11:39:57;102111.40;;;14.34;69.50
60697;BME280;46536;54.376;19.858;2022-10-31T11:42:29;102108.97;;;14.38;69.53
60697;BME280;46536;54.376;19.858;2022-10-31T11:44:58;102108.83;;;14.37;69.50
60697;BME280;46536;54.376;19.858;2022-10-31T11:47:29;102109.73;;;14.36;69.58
60697;BME280;46536;54.376;19.858;2022-10-31T11:50:15;102106.55;;;14.32;69.70
60697;BME280;46536;54.376;19.858;2022-10-31T11:52:47;102111.94;;;14.33;70.00
60697;BME280;46536;54.376;19.858;2022-10-31T11:55:30;102108.58;;;14.34;70.11
60697;BME280;46536;54.376;19.858;2022-10-31T11:57:59;102105.20;;;14.36;70.39
60697;BME280;46536;54.376;19.858;2022-10-31T12:00:32;102103.95;;;14.37;70.53
60697;BME280;46536;54.376;19.858;2022-10-31T12:03:12;102093.73;;;14.39;70.64
60697;BME280;46536;54.376;19.858;2022-10-31T12:05:44;102077.83;;;14.39;70.74
60697;BME280;46536;54.376;19.858;2022-10-31T12:08:15;102073.48;;;14.38;71.08
60697;BME280;46536;54.376;19.858;2022-10-31T12:14:04;102087.11;;;14.33;71.15
60697;BME280;46536;54.376;19.858;2022-10-31T12:16:59;102092.16;;;14.28;71.18
60697;BME280;46536;54.376;19.858;2022-10-31T12:25:20;102100.45;;;14.26;71.00
60697;BME280;46536;54.376;19.858;2022-10-31T12:36:20;102099.63;;;14.24;71.18
60697;BME280;46536;54.376;19.858;2022-10-31T12:39:02;102100.55;;;14.22;71.09
60697;BME280;46536;54.376;19.858;2022-10-31T12:42:30;102097.54;;;14.17;71.04
60697;BME280;46536;54.376;19.858;2022-10-31T12:58:39;102102.59;;;14.07;71.92
60697;BME280;46536;54.376;19.858;2022-10-31T13:01:28;102095.77;;;14.07;72.03
60697;BME280;46536;54.376;19.858;2022-10-31T13:04:14;102091.39;;;14.07;72.09
60697;BME280;46536;54.376;19.858;2022-10-31T13:07:05;102087.48;;;14.09;72.17
60697;BME280;46536;54.376;19.858;2022-10-31T13:09:41;102079.77;;;14.10;72.16
60697;BME280;46536;54.376;19.858;2022-10-31T13:12:17;102079.73;;;14.11;72.26
60697;BME280;46536;54.376;19.858;2022-10-31T13:15:00;102073.25;;;14.12;72.11
60697;BME280;46536;54.376;19.858;2022-10-31T13:17:37;102075.79;;;14.14;72.13
60697;BME280;46536;54.376;19.858;2022-10-31T13:20:27;102077.56;;;14.14;72.07
60697;BME280;46536;54.376;19.858;2022-10-31T13:23:23;102078.56;;;14.15;72.12
60697;BME280;46536;54.376;19.858;2022-10-31T13:26:20;102070.96;;;14.18;72.05
60697;BME280;46536;54.376;19.858;2022-10-31T13:28:59;102074.04;;;14.20;72.01
60697;BME280;46536;54.376;19.858;2022-10-31T13:31:32;102076.94;;;14.23;71.92
60697;BME280;46536;54.376;19.858;2022-10-31T13:34:08;102081.11;;;14.24;71.74
60697;BME280;46536;54.376;19.858;2022-10-31T13:44:39;102078.79;;;14.26;71.76
60697;BME280;46536;54.376;19.858;2022-10-31T13:47:28;102089.45;;;14.26;71.63
60697;BME280;46536;54.376;19.858;2022-10-31T13:50:24;102096.05;;;14.27;71.65
60697;BME280;46536;54.376;19.858;2022-10-31T13:53:13;102098.48;;;14.33;71.61
60697;BME280;46536;54.376;19.858;2022-10-31T13:55:43;102092.84;;;14.40;71.38
60697;BME280;46536;54.376;19.858;2022-10-31T13:58:31;102087.55;;;14.43;71.33
60697;BME280;46536;54.376;19.858;2022-10-31T14:01:15;102085.05;;;14.45;71.27
60697;BME280;46536;54.376;19.858;2022-10-31T14:03:55;102086.93;;;14.46;71.12
60697;BME280;46536;54.376;19.858;2022-10-31T14:06:52;102084.68;;;14.45;71.03
60697;BME280;46536;54.376;19.858;2022-10-31T14:09:26;102083.52;;;14.43;71.15
60697;BME280;46536;54.376;19.858;2022-10-31T14:11:57;102084.96;;;14.40;71.16
60697;BME280;46536;54.376;19.858;2022-10-31T14:14:50;102086.06;;;14.38;71.18
60697;BME280;46536;54.376;19.858;2022-10-31T14:17:26;102081.77;;;14.37;71.26
60697;BME280;46536;54.376;19.858;2022-10-31T14:20:25;102084.22;;;14.36;71.39
60697;BME280;46536;54.376;19.858;2022-10-31T14:29:23;102079.04;;;14.39;71.41
60697;BME280;46536;54.376;19.858;2022-10-31T14:32:22;102075.88;;;14.40;71.31
60697;BME280;46536;54.376;19.858;2022-10-31T14:34:55;102083.44;;;14.38;71.26
60697;BME280;46536;54.376;19.858;2022-10-31T14:43:50;102077.64;;;14.23;71.38
60697;BME280;46536;54.376;19.858;2022-10-31T14:46:30;102076.42;;;14.22;71.46
60697;BME280;46536;54.376;19.858;2022-10-31T14:52:01;102073.78;;;14.17;71.48
60697;BME280;46536;54.376;19.858;2022-10-31T14:54:39;102069.96;;;14.16;71.51
60697;BME280;46536;54.376;19.858;2022-10-31T14:57:24;102077.59;;;14.18;71.43
60697;BME280;46536;54.376;19.858;2022-10-31T15:00:01;102072.59;;;14.16;71.41
60697;BME280;46536;54.376;19.858;2022-10-31T15:02:44;102072.55;;;14.12;71.39
60697;BME280;46536;54.376;19.858;2022-10-31T15:05:18;102073.19;;;14.08;71.39
60697;BME280;46536;54.376;19.858;2022-10-31T15:07:52;102071.69;;;14.06;71.48
60697;BME280;46536;54.376;19.858;2022-10-31T15:10:29;102066.98;;;14.05;71.39
60697;BME280;46536;54.376;19.858;2022-10-31T15:13:17;102070.16;;;14.03;71.44
60697;BME280;46536;54.376;19.858;2022-10-31T15:15:51;102073.29;;;14.05;71.41
60697;BME280;46536;54.376;19.858;2022-10-31T15:18:26;102068.02;;;14.06;71.39
60697;BME280;46536;54.376;19.858;2022-10-31T15:21:03;102069.27;;;14.04;71.42
60697;BME280;46536;54.376;19.858;2022-10-31T15:23:44;102069.45;;;14.04;71.36
60697;BME280;46536;54.376;19.858;2022-10-31T15:26:21;102064.02;;;14.05;71.36
60697;BME280;46536;54.376;19.858;2022-10-31T15:28:59;102066.09;;;14.06;71.27
60697;BME280;46536;54.376;19.858;2022-10-31T15:31:33;102060.88;;;14.04;71.21
60697;BME280;46536;54.376;19.858;2022-10-31T15:34:41;102060.64;;;14.01;71.16
60697;BME280;46536;54.376;19.858;2022-10-31T15:37:19;102067.78;;;13.96;71.28
60697;BME280;46536;54.376;19.858;2022-10-31T15:39:54;102073.73;;;13.89;71.28
60697;BME280;46536;54.376;19.858;2022-10-31T15:42:32;102066.70;;;13.84;71.47
60697;BME280;46536;54.376;19.858;2022-10-31T15:45:26;102059.84;;;13.80;71.58
60697;BME280;46536;54.376;19.858;2022-10-31T15:48:15;102063.33;;;13.74;71.68
60697;BME280;46536;54.376;19.858;2022-10-31T15:50:55;102067.11;;;13.70;71.84
60697;BME280;46536;54.376;19.858;2022-10-31T15:53:51;102068.56;;;13.68;71.89
60697;BME280;46536;54.376;19.858;2022-10-31T15:56:31;102069.45;;;13.67;71.94